createdAt,value
2017-07-26T00:00:05.073Z,16.50
2017-07-26T00:02:33.309Z,16.50
2017-07-26T00:05:00.773Z,16.50
2017-07-26T00:07:28.253Z,16.50
2017-07-26T00:09:55.719Z,16.50
2017-07-26T00:12:23.964Z,16.60
2017-07-26T00:14:51.433Z,16.60
2017-07-26T00:17:18.906Z,16.50
2017-07-26T00:19:47.133Z,16.50
2017-07-26T00:22:14.609Z,16.50
2017-07-26T00:24:42.087Z,16.50
2017-07-26T00:27:10.317Z,16.50
2017-07-26T00:29:37.795Z,16.50
2017-07-26T00:32:05.268Z,16.50
2017-07-26T00:34:32.732Z,16.50
2017-07-26T00:37:00.967Z,16.50
2017-07-26T00:39:28.448Z,16.50
2017-07-26T00:41:55.932Z,16.50
2017-07-26T00:44:24.190Z,16.50
2017-07-26T00:46:51.665Z,16.50
2017-07-26T00:49:19.897Z,16.50
2017-07-26T00:51:47.373Z,16.50
2017-07-26T00:54:14.848Z,16.50
2017-07-26T00:56:43.072Z,16.60
2017-07-26T00:59:10.569Z,16.50
2017-07-26T01:01:38.800Z,16.50
2017-07-26T01:04:06.250Z,16.50
2017-07-26T01:06:33.730Z,16.50
2017-07-26T01:09:01.194Z,16.40
2017-07-26T01:11:28.676Z,16.50
2017-07-26T01:13:56.911Z,16.50
2017-07-26T01:16:24.364Z,16.50
2017-07-26T01:18:51.867Z,16.50
2017-07-26T01:21:20.089Z,16.50
2017-07-26T01:23:47.556Z,16.50
2017-07-26T01:26:15.032Z,16.50
2017-07-26T01:28:42.533Z,16.60
2017-07-26T01:31:10.025Z,16.50
2017-07-26T01:33:37.508Z,16.50
2017-07-26T01:36:04.961Z,16.50
2017-07-26T01:38:32.445Z,16.50
2017-07-26T01:41:00.817Z,16.50
2017-07-26T01:43:29.067Z,16.50
2017-07-26T01:45:56.638Z,16.60
2017-07-26T01:48:24.120Z,16.60
2017-07-26T01:50:51.581Z,16.60
2017-07-26T01:53:19.051Z,16.60
2017-07-26T01:55:46.532Z,16.60
2017-07-26T01:58:14.004Z,16.60
2017-07-26T02:00:41.489Z,16.60
2017-07-26T02:03:09.721Z,16.60
2017-07-26T02:05:37.197Z,16.60
2017-07-26T02:08:04.680Z,16.60
2017-07-26T02:10:32.911Z,16.60
2017-07-26T02:13:00.394Z,16.60
2017-07-26T02:15:27.862Z,16.60
2017-07-26T02:17:56.120Z,16.60
2017-07-26T02:20:23.649Z,16.60
2017-07-26T02:22:51.125Z,16.70
2017-07-26T02:25:18.610Z,16.70
2017-07-26T02:27:46.069Z,16.70
2017-07-26T02:30:14.314Z,16.60
2017-07-26T02:32:41.773Z,16.60
2017-07-26T02:35:09.252Z,16.60
2017-07-26T02:37:37.501Z,16.70
2017-07-26T02:40:04.972Z,16.70
2017-07-26T02:42:32.444Z,16.70
2017-07-26T02:45:00.678Z,16.70
2017-07-26T02:47:28.155Z,16.70
2017-07-26T02:49:55.629Z,16.70
2017-07-26T02:52:23.865Z,16.70
2017-07-26T02:54:51.344Z,16.70
2017-07-26T02:57:18.809Z,16.80
2017-07-26T02:59:46.282Z,16.70
2017-07-26T03:02:14.501Z,16.70
2017-07-26T03:04:41.998Z,16.70
2017-07-26T03:07:09.453Z,16.60
2017-07-26T03:09:36.922Z,16.60
2017-07-26T03:12:05.173Z,16.60
2017-07-26T03:14:32.648Z,16.60
2017-07-26T03:17:00.973Z,16.60
2017-07-26T03:19:28.456Z,16.60
2017-07-26T03:21:55.926Z,16.70
2017-07-26T03:24:23.389Z,16.60
2017-07-26T03:26:50.864Z,16.60
2017-07-26T03:29:19.109Z,16.70
2017-07-26T03:31:46.567Z,16.60
2017-07-26T03:34:14.041Z,16.60
2017-07-26T03:36:42.290Z,16.60
2017-07-26T03:39:09.765Z,16.60
2017-07-26T03:41:37.233Z,16.60
2017-07-26T03:44:05.469Z,16.60
2017-07-26T03:46:32.953Z,16.60
2017-07-26T03:49:00.416Z,16.60
2017-07-26T03:51:27.900Z,16.60
2017-07-26T03:53:55.373Z,16.60
2017-07-26T03:56:22.868Z,16.60
2017-07-26T03:58:50.353Z,16.50
2017-07-26T04:01:18.582Z,16.50
2017-07-26T04:03:46.127Z,16.50
2017-07-26T04:06:13.576Z,16.50
2017-07-26T04:08:41.052Z,16.50
2017-07-26T04:11:08.524Z,16.50
2017-07-26T04:13:35.982Z,16.50
2017-07-26T04:16:03.531Z,16.50
2017-07-26T04:18:31.021Z,16.40
2017-07-26T04:20:58.497Z,16.40
2017-07-26T04:23:26.057Z,16.40
2017-07-26T04:25:53.553Z,16.40
2017-07-26T04:28:21.036Z,16.40
2017-07-26T04:30:48.529Z,16.30
2017-07-26T04:33:16.022Z,16.30
2017-07-26T04:35:43.487Z,16.30
2017-07-26T04:38:10.953Z,16.30
2017-07-26T04:40:38.411Z,16.30
2017-07-26T04:43:05.998Z,16.30
2017-07-26T04:45:34.288Z,16.30
2017-07-26T04:48:01.778Z,16.30
2017-07-26T04:50:29.232Z,16.30
2017-07-26T04:52:56.706Z,16.30
2017-07-26T04:55:24.165Z,16.30
2017-07-26T04:57:51.633Z,16.30
2017-07-26T05:00:19.116Z,16.40
2017-07-26T05:02:47.359Z,16.30
2017-07-26T05:05:14.997Z,16.30
2017-07-26T05:07:42.476Z,16.40
2017-07-26T05:10:09.949Z,16.40
2017-07-26T05:12:37.427Z,16.40
2017-07-26T05:15:05.650Z,16.40
2017-07-26T05:17:33.137Z,16.40
2017-07-26T05:20:00.605Z,16.40
2017-07-26T05:22:28.834Z,16.50
2017-07-26T05:24:56.308Z,16.40
2017-07-26T05:27:23.782Z,16.50
2017-07-26T05:29:51.257Z,16.50
2017-07-26T05:32:19.492Z,16.50
2017-07-26T05:34:46.950Z,16.50
2017-07-26T05:37:14.439Z,16.50
2017-07-26T05:39:42.689Z,16.50
2017-07-26T05:42:10.224Z,16.50
2017-07-26T05:44:37.697Z,16.50
2017-07-26T05:47:05.165Z,16.50
2017-07-26T05:49:32.641Z,16.50
2017-07-26T05:52:00.193Z,16.50
2017-07-26T05:54:27.677Z,16.50
2017-07-26T05:56:55.155Z,16.50
2017-07-26T05:59:22.630Z,16.50
2017-07-26T06:01:50.089Z,16.50
2017-07-26T06:04:17.555Z,16.50
2017-07-26T06:06:45.084Z,16.50
2017-07-26T06:09:12.537Z,16.50
2017-07-26T06:11:40.099Z,16.60
2017-07-26T06:14:07.560Z,16.60
2017-07-26T06:16:35.041Z,16.60
2017-07-26T06:19:02.523Z,16.60
2017-07-26T06:21:29.989Z,16.60
2017-07-26T06:23:58.220Z,16.70
2017-07-26T06:26:25.705Z,16.70
2017-07-26T06:28:53.166Z,16.80
2017-07-26T06:31:20.660Z,16.80
2017-07-26T06:33:48.116Z,16.90
2017-07-26T06:36:15.589Z,16.90
2017-07-26T06:38:43.059Z,16.90
2017-07-26T06:41:10.565Z,17.00
2017-07-26T06:43:38.865Z,17.00
2017-07-26T06:46:06.377Z,17.00
2017-07-26T06:48:33.834Z,17.10
2017-07-26T06:51:01.304Z,17.10
2017-07-26T06:53:29.563Z,17.10
2017-07-26T06:55:57.071Z,17.10
2017-07-26T06:58:24.541Z,17.10
2017-07-26T07:00:52.013Z,17.10
2017-07-26T07:03:19.479Z,17.20
2017-07-26T07:05:46.949Z,17.30
2017-07-26T07:08:14.428Z,17.30
2017-07-26T07:10:42.697Z,17.20
2017-07-26T07:13:10.959Z,17.30
2017-07-26T07:15:38.510Z,17.30
2017-07-26T07:18:05.974Z,17.30
2017-07-26T07:20:33.474Z,17.40
2017-07-26T07:23:01.076Z,17.40
2017-07-26T07:25:28.553Z,17.50
2017-07-26T07:27:56.777Z,17.50
2017-07-26T07:30:24.241Z,17.40
2017-07-26T07:32:52.437Z,17.40
2017-07-26T07:35:19.893Z,17.30
2017-07-26T07:37:47.373Z,17.40
2017-07-26T07:40:14.837Z,17.50
2017-07-26T07:42:43.088Z,17.40
2017-07-26T07:45:10.689Z,17.30
2017-07-26T07:47:38.149Z,17.40
2017-07-26T07:50:05.633Z,17.40
2017-07-26T07:52:33.140Z,17.50
2017-07-26T07:55:01.390Z,17.70
2017-07-26T07:57:28.867Z,17.70
2017-07-26T07:59:56.333Z,17.90
2017-07-26T08:02:24.573Z,18.00
2017-07-26T08:04:52.038Z,18.00
2017-07-26T08:07:19.499Z,18.10
2017-07-26T08:09:46.985Z,18.10
2017-07-26T08:12:14.497Z,18.20
2017-07-26T08:14:41.969Z,18.10
2017-07-26T08:17:09.440Z,18.00
2017-07-26T08:19:37.683Z,18.20
2017-07-26T08:22:05.165Z,18.20
2017-07-26T08:24:32.639Z,18.20
2017-07-26T08:27:00.876Z,18.10
2017-07-26T08:29:28.347Z,18.10
2017-07-26T08:31:55.809Z,18.00
2017-07-26T08:34:23.276Z,18.10
2017-07-26T08:36:51.511Z,18.00
2017-07-26T08:39:19.170Z,18.00
2017-07-26T08:41:46.641Z,17.90
2017-07-26T08:44:14.123Z,18.10
2017-07-26T08:46:42.347Z,18.40
2017-07-26T08:49:09.802Z,18.40
2017-07-26T08:51:37.266Z,18.60
2017-07-26T08:54:04.721Z,18.60
2017-07-26T08:56:32.215Z,18.60
2017-07-26T08:58:59.691Z,18.70
2017-07-26T09:01:27.917Z,19.00
2017-07-26T09:03:55.386Z,19.00
2017-07-26T09:06:22.902Z,19.10
2017-07-26T09:08:50.389Z,19.30
2017-07-26T09:11:17.841Z,19.40
2017-07-26T09:13:45.327Z,19.40
2017-07-26T09:16:12.853Z,19.40
2017-07-26T09:18:40.424Z,19.50
2017-07-26T09:21:07.930Z,19.50
2017-07-26T09:23:35.404Z,19.60
2017-07-26T09:26:02.893Z,19.60
2017-07-26T09:28:30.448Z,19.80
2017-07-26T09:30:57.964Z,19.90
2017-07-26T09:33:25.551Z,19.90
2017-07-26T09:35:53.138Z,20.00
2017-07-26T09:38:21.484Z,20.30
2017-07-26T09:40:49.066Z,20.30
2017-07-26T09:43:16.550Z,20.50
2017-07-26T09:45:44.034Z,20.60
2017-07-26T09:48:11.540Z,20.60
2017-07-26T09:50:39.010Z,20.60
2017-07-26T09:53:06.500Z,20.70
2017-07-26T09:55:34.747Z,20.70
2017-07-26T09:58:02.226Z,20.70
2017-07-26T10:00:30.465Z,20.80
2017-07-26T10:02:57.926Z,20.80
2017-07-26T10:05:25.492Z,20.70
2017-07-26T10:07:52.949Z,20.70
2017-07-26T10:10:20.428Z,20.70
2017-07-26T10:12:48.666Z,20.70
2017-07-26T10:15:16.147Z,20.70
2017-07-26T10:17:43.605Z,20.90
2017-07-26T10:20:11.849Z,21.20
2017-07-26T10:22:39.322Z,21.10
2017-07-26T10:25:06.804Z,21.20
2017-07-26T10:27:35.025Z,21.50
2017-07-26T10:30:02.503Z,21.50
2017-07-26T10:32:29.977Z,21.50
2017-07-26T10:34:57.462Z,21.30
2017-07-26T10:37:24.933Z,21.40
2017-07-26T10:39:52.416Z,21.50
2017-07-26T10:42:19.877Z,21.60
2017-07-26T10:44:47.355Z,21.70
2017-07-26T10:47:14.821Z,21.90
2017-07-26T10:49:42.342Z,21.80
2017-07-26T10:52:09.812Z,21.60
2017-07-26T10:54:37.420Z,21.60
2017-07-26T10:57:04.877Z,21.70
2017-07-26T10:59:32.335Z,21.60
2017-07-26T11:01:59.817Z,21.40
2017-07-26T11:04:27.273Z,21.20
2017-07-26T11:06:54.748Z,21.40
2017-07-26T11:09:22.334Z,21.40
2017-07-26T11:11:49.796Z,21.40
2017-07-26T11:14:18.045Z,21.20
2017-07-26T11:16:45.505Z,21.10
2017-07-26T11:19:12.980Z,21.30
2017-07-26T11:21:40.459Z,21.10
2017-07-26T11:24:08.704Z,21.00
2017-07-26T11:26:36.172Z,20.90
2017-07-26T11:29:04.425Z,20.90
2017-07-26T11:31:31.874Z,20.90
2017-07-26T11:33:59.351Z,20.80
2017-07-26T11:36:26.842Z,20.70
2017-07-26T11:38:54.333Z,20.60
2017-07-26T11:41:21.798Z,20.40
2017-07-26T11:43:49.259Z,20.30
2017-07-26T11:46:16.738Z,20.10
2017-07-26T11:48:44.216Z,20.10
2017-07-26T11:51:12.446Z,19.90
2017-07-26T11:53:39.909Z,19.90
2017-07-26T11:56:07.914Z,20.00
2017-07-26T11:58:36.150Z,20.30
2017-07-26T12:01:03.729Z,20.30
2017-07-26T12:03:31.216Z,20.30
2017-07-26T12:05:58.710Z,20.70
2017-07-26T12:08:26.187Z,20.90
2017-07-26T12:10:53.669Z,21.00
2017-07-26T12:13:21.921Z,21.00
2017-07-26T12:15:49.963Z,21.00
2017-07-26T12:18:17.450Z,20.70
2017-07-26T12:20:44.932Z,20.50
2017-07-26T12:23:13.170Z,20.50
2017-07-26T12:25:40.653Z,20.50
2017-07-26T12:28:08.904Z,20.40
2017-07-26T12:30:36.361Z,20.40
2017-07-26T12:33:03.837Z,20.60
2017-07-26T12:35:31.329Z,20.80
2017-07-26T12:37:58.908Z,21.00
2017-07-26T12:40:26.382Z,21.30
2017-07-26T12:42:53.919Z,21.50
2017-07-26T12:45:21.434Z,21.90
2017-07-26T12:47:49.675Z,22.60
2017-07-26T12:50:17.163Z,22.50
2017-07-26T12:52:44.640Z,22.80
2017-07-26T12:55:12.101Z,22.80
2017-07-26T12:57:39.557Z,22.80
2017-07-26T13:00:07.044Z,22.90
2017-07-26T13:02:34.569Z,23.00
2017-07-26T13:05:02.044Z,23.10
2017-07-26T13:07:29.513Z,23.00
2017-07-26T13:09:57.044Z,23.30
2017-07-26T13:12:24.533Z,23.50
2017-07-26T13:14:52.000Z,23.40
2017-07-26T13:17:19.474Z,23.10
2017-07-26T13:19:46.937Z,22.90
2017-07-26T13:22:14.546Z,23.20
2017-07-26T13:24:42.014Z,23.00
2017-07-26T13:27:09.504Z,22.80
2017-07-26T13:29:37.110Z,22.80
2017-07-26T13:32:04.602Z,23.20
2017-07-26T13:34:32.105Z,23.40
2017-07-26T13:36:59.653Z,23.30
2017-07-26T13:39:27.117Z,23.70
2017-07-26T13:41:54.598Z,23.40
2017-07-26T13:44:22.079Z,23.20
2017-07-26T13:46:49.548Z,22.80
2017-07-26T13:49:17.020Z,22.50
2017-07-26T13:51:44.496Z,22.20
2017-07-26T13:54:11.972Z,22.10
2017-07-26T13:56:39.456Z,22.20
2017-07-26T13:59:06.937Z,22.20
2017-07-26T14:01:34.415Z,22.20
2017-07-26T14:04:01.914Z,22.30
2017-07-26T14:06:29.416Z,22.60
2017-07-26T14:08:56.890Z,23.10
2017-07-26T14:11:24.349Z,22.90
2017-07-26T14:13:52.605Z,22.70
2017-07-26T14:16:20.077Z,22.70
2017-07-26T14:18:47.550Z,22.40
2017-07-26T14:21:15.788Z,22.90
2017-07-26T14:23:43.277Z,22.90
2017-07-26T14:26:10.775Z,23.20
2017-07-26T14:28:38.258Z,23.40
2017-07-26T14:31:05.730Z,23.50
2017-07-26T14:33:33.196Z,23.60
2017-07-26T14:36:01.446Z,23.90
2017-07-26T14:38:28.910Z,23.90
2017-07-26T14:40:56.380Z,24.00
2017-07-26T14:43:24.616Z,24.00
2017-07-26T14:45:52.089Z,24.00
2017-07-26T14:48:19.605Z,24.20
2017-07-26T14:50:47.060Z,24.40
2017-07-26T14:53:14.549Z,24.60
2017-07-26T14:55:42.037Z,24.20
2017-07-26T14:58:09.500Z,24.20
2017-07-26T15:00:37.742Z,23.90
2017-07-26T15:03:05.276Z,23.80
2017-07-26T15:05:32.741Z,23.90
2017-07-26T15:08:00.237Z,23.90
2017-07-26T15:10:27.705Z,23.80
2017-07-26T15:12:55.966Z,24.10
2017-07-26T15:15:23.439Z,24.10
2017-07-26T15:17:51.661Z,23.60
2017-07-26T15:20:19.142Z,23.60
2017-07-26T15:22:46.618Z,23.40
2017-07-26T15:25:14.089Z,23.10
2017-07-26T15:27:41.548Z,22.90
2017-07-26T15:30:09.070Z,22.80
2017-07-26T15:32:36.542Z,22.90
2017-07-26T15:35:04.002Z,23.00
2017-07-26T15:37:31.474Z,22.90
2017-07-26T15:39:59.814Z,23.00
2017-07-26T15:42:27.274Z,23.00
2017-07-26T15:44:54.744Z,23.10
2017-07-26T15:47:22.226Z,23.20
2017-07-26T15:49:49.694Z,23.20
2017-07-26T15:52:17.315Z,23.10
2017-07-26T15:54:44.770Z,23.20
2017-07-26T15:57:12.389Z,23.20
2017-07-26T15:59:39.844Z,23.30
2017-07-26T16:02:07.317Z,23.10
2017-07-26T16:04:34.806Z,22.90
2017-07-26T16:07:02.294Z,22.80
2017-07-26T16:09:29.776Z,22.80
2017-07-26T16:11:57.757Z,22.80
2017-07-26T16:14:25.230Z,22.60
2017-07-26T16:16:52.696Z,22.60
2017-07-26T16:19:20.169Z,22.50
2017-07-26T16:21:48.429Z,22.50
2017-07-26T16:24:15.900Z,22.50
2017-07-26T16:26:44.150Z,22.40
2017-07-26T16:29:11.612Z,22.40
2017-07-26T16:31:39.084Z,22.40
2017-07-26T16:34:06.549Z,22.50
2017-07-26T16:36:34.784Z,22.60
2017-07-26T16:39:02.250Z,22.50
2017-07-26T16:41:29.725Z,22.60
2017-07-26T16:43:57.181Z,22.60
2017-07-26T16:46:24.650Z,22.60
2017-07-26T16:48:52.920Z,22.60
2017-07-26T16:51:20.399Z,22.60
2017-07-26T16:53:47.873Z,22.70
2017-07-26T16:56:15.326Z,22.50
2017-07-26T16:58:42.827Z,22.60
2017-07-26T17:01:10.314Z,22.50
2017-07-26T17:03:38.589Z,22.40
2017-07-26T17:06:06.119Z,22.50
2017-07-26T17:08:33.609Z,22.40
2017-07-26T17:11:01.171Z,22.30
2017-07-26T17:13:28.639Z,22.30
2017-07-26T17:15:56.116Z,22.30
2017-07-26T17:18:23.590Z,22.30
2017-07-26T17:20:51.126Z,22.30
2017-07-26T17:23:18.608Z,22.20
2017-07-26T17:25:46.056Z,22.30
2017-07-26T17:28:13.516Z,22.20
2017-07-26T17:30:41.174Z,22.20
2017-07-26T17:33:08.643Z,22.20
2017-07-26T17:35:36.116Z,22.30
2017-07-26T17:38:03.592Z,22.30
2017-07-26T17:40:31.822Z,22.30
2017-07-26T17:42:59.381Z,22.30
2017-07-26T17:45:26.864Z,22.30
2017-07-26T17:47:54.332Z,22.30
2017-07-26T17:50:22.588Z,22.30
2017-07-26T17:52:50.064Z,22.30
2017-07-26T17:55:18.466Z,22.30
2017-07-26T17:57:45.953Z,22.30
2017-07-26T18:00:13.413Z,22.20
2017-07-26T18:02:40.876Z,22.20
2017-07-26T18:05:08.350Z,22.20
2017-07-26T18:07:35.817Z,22.20
2017-07-26T18:10:03.303Z,22.20
2017-07-26T18:12:30.766Z,22.20
2017-07-26T18:14:58.232Z,22.20
2017-07-26T18:17:25.705Z,22.20
2017-07-26T18:19:53.152Z,22.20
2017-07-26T18:22:20.630Z,22.20
2017-07-26T18:24:48.089Z,22.10
2017-07-26T18:27:15.554Z,22.10
2017-07-26T18:29:43.026Z,22.00
2017-07-26T18:32:10.492Z,22.00
2017-07-26T18:34:38.733Z,22.00
2017-07-26T18:37:06.184Z,22.00
2017-07-26T18:39:33.668Z,22.00
2017-07-26T18:42:01.149Z,22.00
2017-07-26T18:44:28.618Z,22.00
2017-07-26T18:46:56.094Z,21.90
2017-07-26T18:49:23.565Z,21.90
2017-07-26T18:51:51.074Z,21.90
2017-07-26T18:54:18.541Z,21.80
2017-07-26T18:56:45.985Z,21.80
2017-07-26T18:59:13.505Z,21.80
2017-07-26T19:01:40.975Z,21.80
2017-07-26T19:04:08.440Z,21.80
2017-07-26T19:06:35.891Z,21.80
2017-07-26T19:09:03.388Z,21.80
2017-07-26T19:11:30.928Z,21.80
2017-07-26T19:13:59.203Z,21.80
2017-07-26T19:16:27.537Z,21.70
2017-07-26T19:18:55.046Z,21.70
2017-07-26T19:21:22.516Z,21.70
2017-07-26T19:23:50.008Z,21.70
2017-07-26T19:26:17.526Z,21.70
2017-07-26T19:28:44.999Z,21.60
2017-07-26T19:31:12.458Z,21.70
2017-07-26T19:33:39.951Z,21.60
2017-07-26T19:36:07.405Z,21.60
2017-07-26T19:38:34.885Z,21.60
2017-07-26T19:41:03.117Z,21.50
2017-07-26T19:43:30.604Z,21.50
2017-07-26T19:45:58.098Z,21.50
2017-07-26T19:48:25.558Z,21.60
2017-07-26T19:50:53.137Z,21.50
2017-07-26T19:53:20.695Z,21.50
2017-07-26T19:55:48.168Z,21.50
2017-07-26T19:58:15.681Z,21.50
2017-07-26T20:00:43.914Z,21.50
2017-07-26T20:03:11.406Z,21.50
2017-07-26T20:05:38.865Z,21.50
2017-07-26T20:08:06.375Z,21.50
2017-07-26T20:10:33.852Z,21.50
2017-07-26T20:13:01.332Z,21.40
2017-07-26T20:15:29.576Z,21.50
2017-07-26T20:17:57.102Z,21.50
2017-07-26T20:20:24.588Z,21.40
2017-07-26T20:22:52.741Z,21.40
2017-07-26T20:25:20.236Z,21.40
2017-07-26T20:27:47.729Z,21.40
2017-07-26T20:30:15.185Z,21.40
2017-07-26T20:32:42.678Z,21.30
2017-07-26T20:35:10.134Z,21.30
2017-07-26T20:37:37.637Z,21.30
2017-07-26T20:40:05.881Z,21.30
2017-07-26T20:42:33.356Z,21.30
2017-07-26T20:45:01.628Z,21.30
2017-07-26T20:47:29.863Z,21.20
2017-07-26T20:49:57.333Z,21.20
2017-07-26T20:52:24.821Z,21.20
2017-07-26T20:54:52.278Z,21.20
2017-07-26T20:57:20.519Z,21.10
2017-07-26T20:59:48.005Z,21.10
2017-07-26T21:02:15.466Z,21.20
2017-07-26T21:10:29.284Z,21.10
2017-07-26T21:12:56.742Z,21.10
2017-07-26T21:15:24.203Z,21.10
2017-07-26T21:17:51.689Z,21.00
2017-07-26T21:20:19.160Z,21.10
2017-07-26T21:22:47.400Z,21.00
2017-07-26T21:25:14.936Z,21.00
2017-07-26T21:27:42.413Z,21.00
2017-07-26T21:30:09.897Z,21.00
2017-07-26T21:32:37.379Z,21.00
2017-07-26T21:35:04.829Z,21.00
2017-07-26T21:37:32.361Z,21.00
2017-07-26T21:39:59.821Z,21.00
2017-07-26T21:42:27.289Z,20.90
2017-07-26T21:44:55.522Z,20.90
2017-07-26T21:47:23.067Z,20.80
2017-07-26T21:49:50.537Z,20.80
2017-07-26T21:52:18.022Z,20.70
2017-07-26T21:54:45.601Z,20.80
2017-07-26T21:57:13.826Z,20.80
2017-07-26T21:59:41.649Z,20.80
2017-07-26T22:02:09.883Z,20.80
2017-07-26T22:04:37.415Z,20.80
2017-07-26T22:07:04.914Z,20.70
2017-07-26T22:09:32.375Z,20.70
2017-07-26T22:11:59.933Z,20.70
2017-07-26T22:14:27.633Z,20.70
2017-07-26T22:16:55.178Z,20.70
2017-07-26T22:19:22.896Z,20.80
2017-07-26T22:21:50.360Z,20.70
2017-07-26T22:24:17.862Z,20.70
2017-07-26T22:26:45.321Z,20.70
2017-07-26T22:29:12.774Z,20.70
2017-07-26T22:31:40.349Z,20.70
2017-07-26T22:34:07.825Z,20.60
2017-07-26T22:36:35.434Z,20.50
2017-07-26T22:39:03.655Z,20.40
2017-07-26T22:41:32.861Z,20.40
2017-07-26T22:44:00.350Z,20.40
2017-07-26T22:46:27.821Z,20.30
2017-07-26T22:48:56.052Z,20.10
2017-07-26T22:51:23.536Z,20.10
2017-07-26T22:53:51.019Z,20.00
2017-07-26T22:56:18.538Z,19.90
2017-07-26T22:58:46.626Z,19.80
2017-07-26T23:01:14.884Z,19.80
2017-07-26T23:03:42.375Z,19.80
2017-07-26T23:06:10.593Z,19.70
2017-07-26T23:08:38.056Z,19.70
2017-07-26T23:11:05.566Z,19.70
2017-07-26T23:13:33.792Z,19.70
2017-07-26T23:16:01.247Z,19.70
2017-07-26T23:18:28.717Z,19.70
2017-07-26T23:20:56.185Z,19.70
2017-07-26T23:23:23.666Z,19.70
2017-07-26T23:25:51.117Z,19.70
2017-07-26T23:28:19.365Z,19.70
2017-07-26T23:30:46.829Z,19.60
2017-07-26T23:33:14.286Z,19.70
2017-07-26T23:35:41.774Z,19.60
2017-07-26T23:38:10.015Z,19.60
2017-07-26T23:40:37.497Z,19.60
2017-07-26T23:43:05.008Z,19.60
2017-07-26T23:45:32.468Z,19.60
2017-07-26T23:47:59.946Z,19.60
2017-07-26T23:50:28.185Z,19.60
2017-07-26T23:52:55.668Z,19.60
2017-07-26T23:55:23.130Z,19.60
2017-07-26T23:57:50.600Z,19.60
